Time;durP1;ratioP1;P1;durP2;ratioP2;P2;SDS_P1;SDS_P2;PMS_P1;PMS_P2;Temp;Humidity;BMP_temperature;BMP_pressure;BME280_temperature;BME280_humidity;BME280_pressure;Samples;Min_cycle;Max_cycle;Signal;HPM_P1;HPM_P2
2022/04/10 00:01:41;;;;;;;14.27;5.20;;;;;;;14.95;57.51;99605.56;4936122;29;20271;-86
2022/04/10 00:04:06;;;;;;;12.40;5.25;;;;;;;14.70;57.37;99583.00;4927287;29;20125;-86
2022/04/10 00:06:32;;;;;;;17.20;6.13;;;;;;;14.55;58.07;99610.31;4943826;29;20106;-86
2022/04/10 00:08:59;;;;;;;14.10;6.40;;;;;;;14.49;58.39;99613.81;4956503;29;20045;-87
2022/04/10 00:11:27;;;;;;;13.52;6.13;;;;;;;14.50;58.03;99608.22;4931793;29;20059;-86
2022/04/10 00:13:56;;;;;;;13.93;6.32;;;;;;;14.38;58.54;99609.91;4917488;29;20057;-88
2022/04/10 00:16:23;;;;;;;12.55;6.18;;;;;;;14.42;58.20;99603.03;4946473;29;20097;-87
2022/04/10 00:18:52;;;;;;;18.48;7.15;;;;;;;14.26;58.75;99606.19;4951737;29;20053;-87
2022/04/10 00:21:18;;;;;;;14.05;6.15;;;;;;;14.26;58.89;99614.31;4928988;29;20039;-88
2022/04/10 00:23:43;;;;;;;14.50;5.50;;;;;;;14.21;59.01;99606.81;4912266;29;20535;-87
2022/04/10 00:26:11;;;;;;;19.80;5.85;;;;;;;14.22;59.12;99607.66;4949989;29;20078;-88
2022/04/10 00:28:37;;;;;;;13.25;6.03;;;;;;;14.24;58.70;99616.38;4934736;29;20144;-86
2022/04/10 00:31:02;;;;;;;;;;;;;;;14.20;58.81;99612.44;4941745;29;20505;-87
2022/04/10 00:33:29;;;;;;;16.20;6.43;;;;;;;14.06;59.44;99615.13;4925360;29;19918;-88
2022/04/10 00:35:54;;;;;;;;;;;;;;;13.96;60.31;99611.22;4936825;29;20071;-87
2022/04/10 00:38:21;;;;;;;14.50;5.47;;;;;;;13.94;60.31;99601.44;4931922;29;19981;-85
2022/04/10 00:40:46;;;;;;;14.70;5.28;;;;;;;13.92;61.03;99608.91;4947136;29;20133;-86
2022/04/10 00:43:12;;;;;;;16.38;5.20;;;;;;;14.01;60.75;99608.72;4934810;29;20086;-87
2022/04/10 00:45:37;;;;;;;18.00;4.90;;;;;;;13.93;60.53;99594.38;4928165;29;20050;-86
2022/04/10 00:48:04;;;;;;;16.00;5.10;;;;;;;14.11;60.42;99607.22;4907982;29;20050;-86
2022/04/10 00:50:30;;;;;;;16.63;5.03;;;;;;;14.15;60.53;99607.66;4945837;29;20039;-85
2022/04/10 00:52:57;;;;;;;14.52;4.78;;;;;;;14.19;60.14;99602.63;4891353;29;20126;-86
2022/04/10 00:55:23;;;;;;;14.88;4.70;;;;;;;14.18;60.30;99606.41;4923676;29;20063;-86
2022/04/10 00:57:50;;;;;;;13.18;5.35;;;;;;;14.10;60.34;99600.16;4914327;29;20170;-87
2022/04/10 01:00:17;;;;;;;13.02;4.90;;;;;;;14.11;59.98;99599.13;4932173;29;20042;-87
2022/04/10 01:02:43;;;;;;;12.25;5.40;;;;;;;14.08;60.03;99602.25;4960658;29;20038;-87
2022/04/10 01:05:13;;;;;;;13.77;5.25;;;;;;;14.08;60.13;99596.03;4918841;29;20039;-87
2022/04/10 01:07:44;;;;;;;12.82;5.32;;;;;;;14.05;60.32;99594.56;4916954;29;20043;-86
2022/04/10 01:10:10;;;;;;;13.77;5.28;;;;;;;14.01;59.92;99585.22;4948275;29;20063;-87
2022/04/10 01:12:37;;;;;;;16.27;5.88;;;;;;;13.98;59.95;99603.69;4935468;29;20047;-86
2022/04/10 01:15:05;;;;;;;15.40;6.65;;;;;;;13.84;60.40;99605.59;4905511;29;20138;-87
2022/04/10 01:17:32;;;;;;;18.90;7.22;;;;;;;13.78;60.27;99603.72;4933772;29;20441;-85
2022/04/10 01:19:57;;;;;;;14.43;7.30;;;;;;;13.71;60.06;99593.72;4923152;29;20075;-86
2022/04/10 01:22:45;;;;;;;18.30;7.55;;;;;;;13.76;60.53;99608.50;4921295;29;20055;-87
2022/04/10 01:25:12;;;;;;;18.70;7.40;;;;;;;13.72;60.34;99614.31;4927750;29;20051;-85
2022/04/10 01:27:38;;;;;;;19.15;8.27;;;;;;;13.67;60.56;99616.81;4914005;29;20083;-88
2022/04/10 01:30:04;;;;;;;22.00;9.30;;;;;;;13.64;60.56;99606.41;4940507;29;20043;-87
2022/04/10 01:32:30;;;;;;;21.35;8.85;;;;;;;13.55;60.69;99607.63;4945392;29;20039;-86
2022/04/10 01:34:58;;;;;;;22.38;9.13;;;;;;;13.51;60.84;99615.34;4928252;29;20190;-86
2022/04/10 01:37:25;;;;;;;23.50;9.02;;;;;;;13.48;60.64;99602.22;4941268;29;20059;-87
2022/04/10 01:39:51;;;;;;;21.42;9.70;;;;;;;13.44;61.00;99606.41;4924702;29;20476;-86
2022/04/10 01:42:18;;;;;;;30.63;9.75;;;;;;;13.29;61.32;99606.56;4935323;29;20043;-86
2022/04/10 01:44:49;;;;;;;27.75;9.10;;;;;;;13.23;61.71;99598.44;4914037;29;20044;-85
2022/04/10 01:47:16;;;;;;;25.52;8.60;;;;;;;13.12;62.17;99601.72;4934189;29;20035;-86
2022/04/10 01:49:41;;;;;;;27.85;9.23;;;;;;;13.13;61.98;99589.88;4947360;29;20126;-87
2022/04/10 01:52:07;;;;;;;22.55;10.35;;;;;;;13.14;62.27;99602.34;4956576;29;20062;-86
2022/04/10 01:54:33;;;;;;;23.50;8.07;;;;;;;13.04;62.45;99600.03;4920778;29;20044;-86
2022/04/10 01:57:01;;;;;;;18.55;8.32;;;;;;;12.97;62.88;99599.16;4953412;29;20059;-87
2022/04/10 01:59:28;;;;;;;18.70;8.57;;;;;;;13.02;62.55;99602.13;4954822;29;20031;-87
2022/04/10 02:01:54;;;;;;;22.05;9.02;;;;;;;12.97;62.56;99593.78;4916867;29;20043;-87
2022/04/10 02:04:20;;;;;;;23.98;8.70;;;;;;;12.96;62.57;99598.34;4941915;29;20038;-87
2022/04/10 02:06:48;;;;;;;17.92;8.75;;;;;;;13.01;62.55;99611.22;4959608;29;20503;-87
2022/04/10 02:09:14;;;;;;;22.10;8.98;;;;;;;12.94;62.68;99602.28;4933687;29;20048;-86
2022/04/10 02:11:40;;;;;;;21.05;8.30;;;;;;;12.97;62.61;99609.97;4918958;29;20043;-89
2022/04/10 02:14:06;;;;;;;19.55;8.70;;;;;;;12.93;62.80;99603.31;4948729;29;20392;-86
2022/04/10 02:16:33;;;;;;;19.58;9.45;;;;;;;12.93;62.92;99608.72;4943517;29;20122;-86
2022/04/10 02:19:00;;;;;;;22.33;8.95;;;;;;;12.92;63.35;99604.34;4953399;29;20035;-88
2022/04/10 02:21:32;;;;;;;23.10;8.52;;;;;;;12.85;63.80;99597.06;4978564;29;20151;-88
2022/04/10 02:23:58;;;;;;;20.25;7.43;;;;;;;12.82;64.26;99602.03;4971582;28;20068;-88
2022/04/10 02:26:24;;;;;;;22.67;8.77;;;;;;;12.85;64.05;99591.69;4954429;28;20485;-89
2022/04/10 02:28:50;;;;;;;23.27;8.88;;;;;;;12.86;63.78;99581.72;4955710;29;20102;-90
2022/04/10 02:31:17;;;;;;;25.70;10.30;;;;;;;12.91;63.39;99589.22;4927168;29;20076;-88
2022/04/10 02:33:43;;;;;;;19.30;9.95;;;;;;;12.95;63.19;99580.50;4934924;29;20027;-88
2022/04/10 02:36:10;;;;;;;26.55;10.45;;;;;;;12.94;63.16;99586.91;4954195;29;20043;-89
2022/04/10 02:38:37;;;;;;;29.85;11.15;;;;;;;12.93;63.29;99587.97;4956081;29;20450;-90
2022/04/10 02:41:03;;;;;;;25.10;10.57;;;;;;;12.95;62.74;99579.69;4930033;29;20031;-89
2022/04/10 02:43:38;;;;;;;22.08;11.45;;;;;;;12.86;63.20;99577.16;4926887;29;20035;-89
2022/04/10 02:46:06;;;;;;;20.75;10.43;;;;;;;12.87;62.98;99573.41;4957979;29;20483;-88
2022/04/10 02:48:37;;;;;;;22.58;10.65;;;;;;;12.95;63.27;99587.78;4942789;29;20039;-89
2022/04/10 02:51:05;;;;;;;22.83;10.60;;;;;;;12.91;63.33;99594.59;4960226;29;20043;-89
2022/04/10 02:53:34;;;;;;;22.70;11.43;;;;;;;12.88;63.27;99596.66;4964545;29;20093;-86
2022/04/10 02:56:01;;;;;;;26.35;14.20;;;;;;;12.76;63.54;99600.97;4927896;29;20039;-88
2022/04/10 02:58:27;;;;;;;30.95;17.30;;;;;;;12.48;64.22;99611.84;4957980;29;20047;-87
2022/04/10 03:00:55;;;;;;;35.80;19.83;;;;;;;12.31;65.02;99635.56;4925509;29;20043;-87
2022/04/10 03:03:21;;;;;;;36.65;18.73;;;;;;;12.44;64.29;99635.66;4935156;29;20169;-87
2022/04/10 03:05:46;;;;;;;34.65;17.30;;;;;;;12.33;64.54;99622.72;4914098;29;20486;-88
2022/04/10 03:08:12;;;;;;;37.47;16.52;;;;;;;12.20;64.98;99630.72;4936477;28;20044;-90
2022/04/10 03:10:38;;;;;;;36.30;17.08;;;;;;;12.18;65.10;99648.97;4923980;29;20031;-92
2022/04/10 03:13:05;;;;;;;31.75;16.48;;;;;;;12.10;65.36;99658.00;4933512;29;20349;-90
2022/04/10 03:15:30;;;;;;;;;;;;;;;12.17;65.17;99666.13;4953768;29;20031;-88
2022/04/10 03:17:55;;;;;;;30.83;15.15;;;;;;;11.84;65.76;99664.78;4922161;29;19919;-91
2022/04/10 03:20:21;;;;;;;40.05;16.27;;;;;;;11.90;66.06;99690.16;4915924;29;20119;-88
2022/04/10 03:22:50;;;;;;;33.20;15.55;;;;;;;11.94;66.04;99686.06;4920591;29;20116;-86
2022/04/10 03:25:16;;;;;;;34.47;15.18;;;;;;;11.96;66.13;99685.84;4912237;29;20051;-87
2022/04/10 03:27:44;;;;;;;33.25;14.93;;;;;;;11.86;66.32;99666.47;4935281;29;20035;-88
2022/04/10 03:30:12;;;;;;;40.50;15.32;;;;;;;11.96;66.41;99680.47;4925952;29;20035;-88
2022/04/10 03:32:38;;;;;;;39.45;15.77;;;;;;;11.92;66.83;99692.69;4921593;29;20036;-89
2022/04/10 03:35:05;;;;;;;36.67;15.25;;;;;;;11.81;66.69;99664.34;4945170;29;20090;-91
2022/04/10 03:37:31;;;;;;;;;;;;;;;11.97;66.86;99679.44;4934739;29;20213;-89
2022/04/10 03:39:59;;;;;;;31.80;14.43;;;;;;;12.02;66.53;99677.00;4938779;29;19929;-88
2022/04/10 03:42:25;;;;;;;31.88;13.57;;;;;;;12.10;66.53;99670.63;4920527;29;20043;-90
2022/04/10 03:44:51;;;;;;;23.90;13.15;;;;;;;12.14;66.47;99663.84;4912508;29;20424;-89
2022/04/10 03:47:17;;;;;;;30.33;13.50;;;;;;;12.25;66.33;99671.38;4934878;29;20055;-89
2022/04/10 03:49:46;;;;;;;28.23;11.95;;;;;;;12.33;66.06;99667.72;4926190;29;20200;-89
2022/04/10 03:52:24;;;;;;;26.33;12.70;;;;;;;12.44;65.61;99670.69;4965809;29;20039;-89
2022/04/10 03:54:52;;;;;;;27.65;11.38;;;;;;;12.53;65.69;99689.44;4934793;29;20055;-90
2022/04/10 03:57:18;;;;;;;27.23;11.10;;;;;;;12.57;65.67;99682.59;4931573;29;20043;-87
2022/04/10 03:59:44;;;;;;;27.63;9.98;;;;;;;12.69;65.51;99691.81;4918623;29;20054;-90
2022/04/10 04:02:11;;;;;;;21.23;9.35;;;;;;;12.83;65.34;99692.69;4935598;29;20039;-87
2022/04/10 04:04:36;;;;;;;25.35;9.52;;;;;;;12.87;65.14;99694.78;4945070;29;20040;-88
2022/04/10 04:07:03;;;;;;;20.73;9.00;;;;;;;13.05;64.58;99701.53;4932268;29;20134;-85
2022/04/10 04:09:31;;;;;;;21.05;7.80;;;;;;;13.24;64.16;99700.78;4954922;29;20063;-88
2022/04/10 04:12:02;;;;;;;23.48;7.65;;;;;;;13.39;63.66;99694.41;4945258;29;20043;-89
2022/04/10 04:14:28;;;;;;;19.05;6.88;;;;;;;13.42;63.35;99685.94;4932344;29;20464;-88
2022/04/10 04:16:53;;;;;;;16.42;6.72;;;;;;;13.60;62.97;99691.59;4941253;29;20043;-88
2022/04/10 04:19:20;;;;;;;18.85;6.43;;;;;;;13.73;62.66;99691.59;4955409;29;20042;-88
2022/04/10 04:21:52;;;;;;;20.65;6.68;;;;;;;13.83;62.04;99691.19;4915191;29;20062;-89
2022/04/10 04:24:21;;;;;;;14.50;5.95;;;;;;;14.04;61.80;99692.06;4950903;29;20499;-87
2022/04/10 04:26:47;;;;;;;18.38;6.25;;;;;;;14.10;61.39;99673.16;4931451;29;20110;-90
2022/04/10 04:29:14;;;;;;;16.42;6.78;;;;;;;14.32;60.40;99678.34;4935656;29;20509;-89
2022/04/10 04:31:46;;;;;;;20.23;6.85;;;;;;;14.34;60.70;99682.47;4902572;29;20494;-89
2022/04/10 04:34:14;;;;;;;17.88;6.72;;;;;;;14.51;60.07;99673.94;4940494;29;20051;-90
2022/04/10 04:36:49;;;;;;;16.83;6.90;;;;;;;14.51;59.88;99672.06;4912927;29;20441;-91
2022/04/10 04:39:16;;;;;;;20.27;7.18;;;;;;;14.52;59.97;99657.50;4902985;29;20050;-89
2022/04/10 04:41:42;;;;;;;18.63;7.15;;;;;;;14.60;59.56;99659.19;4933562;29;20532;-88
2022/04/10 04:44:16;;;;;;;17.58;7.25;;;;;;;14.63;59.23;99658.75;4903161;29;20063;-88
2022/04/10 04:46:43;;;;;;;16.10;6.75;;;;;;;14.89;58.60;99671.41;4955034;29;20043;-86
2022/04/10 04:49:10;;;;;;;18.27;6.50;;;;;;;15.11;57.88;99676.53;4946649;29;20058;-88
2022/04/10 04:51:36;;;;;;;19.17;6.63;;;;;;;15.11;57.96;99677.34;4949474;29;20129;-87
2022/04/10 04:54:03;;;;;;;16.67;7.28;;;;;;;15.25;57.38;99672.72;4932817;29;20048;-87
2022/04/10 04:56:30;;;;;;;21.83;7.10;;;;;;;15.38;56.96;99669.94;4918795;29;20424;-85
2022/04/10 04:58:56;;;;;;;15.90;7.60;;;;;;;15.63;56.12;99685.41;4936318;29;20123;-87
2022/04/10 05:01:25;;;;;;;21.70;9.02;;;;;;;15.51;56.62;99685.28;4942891;29;20126;-88
2022/04/10 05:03:51;;;;;;;28.83;12.00;;;;;;;15.41;56.16;99671.38;4931081;29;20071;-85
2022/04/10 05:06:17;;;;;;;25.45;12.13;;;;;;;15.56;55.69;99682.75;4948270;29;20035;-88
2022/04/10 05:08:42;;;;;;;;;;;;;;;15.56;55.63;99674.63;4912618;29;20071;-87
2022/04/10 05:11:10;;;;;;;35.08;14.57;;;;;;;15.66;55.18;99651.63;4928722;29;19986;-86
2022/04/10 05:13:36;;;;;;;34.15;15.95;;;;;;;15.71;54.80;99655.41;4917995;29;20036;-88
2022/04/10 05:16:01;;;;;;;30.23;16.45;;;;;;;17.59;50.19;99660.53;4919712;29;20047;-89
2022/04/10 05:18:29;;;;;;;33.45;14.00;;;;;;;19.62;44.69;99662.69;4931269;29;20624;-86
2022/04/10 05:20:56;;;;;;;30.88;13.20;;;;;;;21.50;40.36;99660.31;4941780;29;20035;-89
2022/04/10 05:23:22;;;;;;;30.40;12.38;;;;;;;22.11;38.29;99660.06;4951264;29;20583;-86
2022/04/10 05:25:50;;;;;;;27.80;12.70;;;;;;;23.09;37.20;99665.09;4941540;28;20027;-88
2022/04/10 05:28:17;;;;;;;27.27;12.40;;;;;;;24.77;33.60;99671.88;4944170;29;20047;-88
2022/04/10 05:30:42;;;;;;;26.67;12.40;;;;;;;26.04;31.43;99666.03;4938699;29;20083;-86
2022/04/10 05:33:08;;;;;;;23.75;11.98;;;;;;;26.42;30.69;99661.56;4929951;29;20483;-84
2022/04/10 05:35:35;;;;;;;27.92;12.35;;;;;;;26.18;30.11;99653.25;4928751;29;20058;-87
2022/04/10 05:38:00;;;;;;;27.33;12.05;;;;;;;26.79;29.75;99664.81;4951023;29;20031;-86
2022/04/10 05:40:34;;;;;;;30.08;11.95;;;;;;;28.02;28.01;99647.41;4948893;29;20046;-89
2022/04/10 05:43:01;;;;;;;22.65;11.23;;;;;;;28.74;26.26;99660.00;4946705;29;20047;-88
2022/04/10 05:45:28;;;;;;;25.55;11.77;;;;;;;29.61;25.55;99661.75;4915375;28;20039;-89
2022/04/10 05:47:54;;;;;;;25.10;11.23;;;;;;;29.29;25.38;99657.25;4979791;28;20483;-86
2022/04/10 05:50:26;;;;;;;22.27;11.43;;;;;;;29.95;24.78;99663.22;4925483;29;20134;-86
2022/04/10 05:52:52;;;;;;;20.92;10.80;;;;;;;30.64;24.13;99656.50;4940505;29;20020;-86
2022/04/10 05:55:24;;;;;;;21.80;10.60;;;;;;;30.39;24.03;99644.97;4941609;29;20043;-87
2022/04/10 05:57:51;;;;;;;17.80;9.43;;;;;;;30.09;24.36;99647.34;4907943;29;20492;-88
2022/04/10 06:00:23;;;;;;;22.75;9.63;;;;;;;30.95;23.52;99644.56;4926260;29;20043;-88
2022/04/10 06:02:50;;;;;;;18.85;9.65;;;;;;;31.48;22.84;99636.03;4957321;29;20038;-88
2022/04/10 06:05:18;;;;;;;18.58;9.52;;;;;;;32.12;22.19;99626.22;4938985;29;20089;-85
2022/04/10 06:07:44;;;;;;;25.02;9.55;;;;;;;33.17;20.75;99615.50;4937824;29;20058;-88
2022/04/10 06:10:14;;;;;;;19.25;9.10;;;;;;;34.42;19.78;99633.31;4936580;29;20098;-86
2022/04/10 06:12:41;;;;;;;20.95;9.32;;;;;;;34.35;19.16;99619.94;4942499;29;20044;-88
2022/04/10 06:15:11;;;;;;;25.98;9.70;;;;;;;34.91;18.89;99618.59;4957896;29;20043;-88
2022/04/10 06:17:37;;;;;;;23.98;9.02;;;;;;;35.20;18.51;99614.75;4957768;28;20039;-87
2022/04/10 06:20:03;;;;;;;20.02;8.38;;;;;;;35.47;18.40;99619.59;4929183;29;20031;-87
2022/04/10 06:22:30;;;;;;;20.98;8.02;;;;;;;35.89;17.61;99601.63;4916138;29;20071;-88
2022/04/10 06:24:59;;;;;;;18.13;8.07;;;;;;;35.67;17.75;99597.41;4945448;29;20043;-87
2022/04/10 06:27:25;;;;;;;17.95;8.35;;;;;;;34.42;19.35;99613.78;4923484;29;20035;-86
2022/04/10 06:29:51;;;;;;;18.75;8.07;;;;;;;33.68;20.43;99619.09;4953502;29;20451;-86
2022/04/10 06:32:16;;;;;;;17.30;8.45;;;;;;;33.11;20.60;99619.66;4919984;29;20039;-87
2022/04/10 06:34:43;;;;;;;20.45;8.85;;;;;;;33.69;20.17;99615.13;4933119;29;20054;-86
2022/04/10 06:37:08;;;;;;;21.08;8.68;;;;;;;33.50;20.25;99614.78;4926540;29;20051;-85
2022/04/10 06:39:35;;;;;;;19.33;9.30;;;;;;;31.94;22.17;99608.75;4915855;29;20027;-87
2022/04/10 06:42:08;;;;;;;21.42;9.23;;;;;;;30.69;23.23;99611.97;4951530;29;20330;-85
2022/04/10 06:44:33;;;;;;;18.63;9.60;;;;;;;28.97;25.65;99628.53;4948982;28;20069;-85
2022/04/10 06:47:00;;;;;;;21.15;10.02;;;;;;;27.00;28.30;99638.63;4952295;29;20042;-84
2022/04/10 06:49:27;;;;;;;16.48;8.75;;;;;;;26.64;28.84;99625.25;4950389;29;20122;-85
2022/04/10 06:51:55;;;;;;;20.80;15.13;;;;;;;25.39;31.20;99644.97;4936798;29;20130;-86
2022/04/10 06:54:22;;;;;;;21.38;9.18;;;;;;;27.22;28.56;99642.78;4946579;29;20031;-86
2022/04/10 06:56:47;;;;;;;18.30;9.52;;;;;;;28.59;26.00;99634.28;4931785;29;20047;-82
2022/04/10 06:59:14;;;;;;;21.58;9.57;;;;;;;30.26;24.11;99637.53;4912463;29;20421;-87
2022/04/10 07:01:39;;;;;;;19.58;8.27;;;;;;;31.71;22.31;99624.78;4935160;29;20085;-85
2022/04/10 07:04:05;;;;;;;17.92;7.65;;;;;;;33.05;20.77;99630.16;4921802;29;20072;-85
2022/04/10 07:06:30;;;;;;;11.00;6.13;;;;;;;33.33;19.55;99624.91;4929985;29;20047;-83
2022/04/10 07:09:18;;;;;;;15.18;7.20;;;;;;;33.73;19.62;99624.44;4946817;29;20122;-86
2022/04/10 07:11:45;;;;;;;17.45;7.63;;;;;;;34.11;19.03;99612.28;4939785;29;20039;-83
2022/04/10 07:14:11;;;;;;;14.27;6.38;;;;;;;34.90;18.45;99612.19;4930596;29;20090;-80
2022/04/10 07:16:37;;;;;;;14.13;7.03;;;;;;;35.37;18.12;99614.47;4951179;29;20051;-83
2022/04/10 07:19:02;;;;;;;14.65;6.03;;;;;;;33.27;19.88;99611.50;4943963;29;20035;-81
2022/04/10 07:24:12;;;;;;;17.15;6.25;;;;;;;30.84;22.71;99610.75;4936456;29;20078;-82
2022/04/10 07:26:39;;;;;;;12.32;6.13;;;;;;;31.95;21.51;99621.47;4927769;29;20046;-84
2022/04/10 07:29:04;;;;;;;13.93;6.07;;;;;;;31.86;21.75;99626.22;4928074;29;20039;-83
2022/04/10 07:31:31;;;;;;;15.82;6.28;;;;;;;31.27;22.61;99652.47;4945740;29;20027;-83
2022/04/10 07:33:58;;;;;;;13.73;6.15;;;;;;;30.94;22.87;99654.84;4928869;29;20519;-83
2022/04/10 07:36:25;;;;;;;15.50;6.97;;;;;;;29.17;25.03;99659.69;4932586;29;20220;-83
2022/04/10 07:38:55;;;;;;;17.77;7.22;;;;;;;28.55;26.08;99654.56;4941933;29;20118;-91
2022/04/10 07:41:21;;;;;;;18.15;7.15;;;;;;;28.59;25.77;99656.41;4934385;29;20097;-86
2022/04/10 07:43:46;;;;;;;16.92;7.25;;;;;;;29.49;24.91;99671.75;4934812;29;20043;-84
2022/04/10 07:48:56;;;;;;;13.50;5.90;;;;;;;29.59;24.70;99675.09;4922170;29;20062;-86
2022/04/10 07:51:23;;;;;;;10.68;5.63;;;;;;;29.16;24.81;99667.19;4932054;29;20035;-86
2022/04/10 07:53:53;;;;;;;15.35;6.00;;;;;;;28.31;26.05;99683.13;4918655;29;20099;-86
2022/04/10 07:56:24;;;;;;;11.57;5.47;;;;;;;29.41;24.84;99676.09;4948820;29;20042;-85
2022/04/10 07:59:09;;;;;;;10.18;4.55;;;;;;;29.81;23.52;99665.25;4950593;29;20042;-86
2022/04/10 08:01:34;;;;;;;12.27;4.70;;;;;;;30.87;22.70;99660.84;4927926;29;20027;-81
2022/04/10 08:04:02;;;;;;;9.25;3.97;;;;;;;30.46;22.71;99675.81;4930555;29;20187;-80
2022/04/10 08:06:28;;;;;;;8.52;4.00;;;;;;;30.33;22.68;99671.16;4920618;29;20132;-84
2022/04/10 08:08:54;;;;;;;8.85;4.13;;;;;;;30.23;22.83;99676.97;4936292;29;20111;-83
2022/04/10 08:11:20;;;;;;;12.57;4.20;;;;;;;30.79;22.57;99675.50;4913622;29;20426;-86
2022/04/10 08:13:46;;;;;;;10.27;4.32;;;;;;;31.01;22.25;99673.81;4950530;29;20039;-84
2022/04/10 08:16:14;;;;;;;8.63;4.10;;;;;;;28.81;25.28;99657.66;4913030;29;20492;-81
2022/04/10 08:18:40;;;;;;;11.05;4.40;;;;;;;29.97;23.73;99671.22;4934438;29;20211;-87
2022/04/10 08:21:07;;;;;;;9.57;4.20;;;;;;;30.75;22.62;99662.59;4924871;29;20520;-85
2022/04/10 08:23:34;;;;;;;9.57;4.40;;;;;;;30.67;22.65;99672.47;4918474;29;20062;-86
2022/04/10 08:26:01;;;;;;;9.07;4.25;;;;;;;30.96;22.17;99666.44;4911798;29;20039;-86
2022/04/10 08:28:29;;;;;;;10.50;4.10;;;;;;;30.95;22.01;99662.03;4942653;29;20054;-87
2022/04/10 08:30:55;;;;;;;10.93;4.30;;;;;;;31.15;22.12;99676.47;4928416;29;20050;-86
2022/04/10 08:33:22;;;;;;;7.55;3.60;;;;;;;31.15;22.57;99674.50;4924128;29;20032;-90
2022/04/10 08:36:39;;;;;;;9.65;3.90;;;;;;;30.39;22.96;99667.16;4937161;29;20496;-92
2022/04/10 08:39:22;;;;;;;;;;;;;;;;;;;;;
2022/04/10 08:41:49;;;;;;;8.45;4.00;;;;;;;30.95;22.56;99645.38;4922941;29;20122;-86
2022/04/10 08:44:16;;;;;;;8.70;3.55;;;;;;;31.13;22.28;99657.34;4918781;29;20103;-89
2022/04/10 08:46:45;;;;;;;11.90;3.63;;;;;;;30.10;23.56;99648.16;4929555;29;20473;-87
2022/04/10 08:49:10;;;;;;;12.55;3.85;;;;;;;29.63;24.04;99647.63;4947164;29;20102;-88
2022/04/10 08:51:36;;;;;;;9.18;4.32;;;;;;;27.93;26.77;99644.53;4929895;29;20114;-87
2022/04/10 08:54:06;;;;;;;11.93;4.20;;;;;;;25.94;29.35;99660.59;4912753;29;20040;-89
2022/04/10 08:56:35;;;;;;;11.32;4.15;;;;;;;25.49;30.37;99661.41;4954460;29;20023;-87
2022/04/10 08:59:01;;;;;;;9.35;4.32;;;;;;;25.78;29.51;99659.84;4960912;29;20051;-84
2022/04/10 09:01:28;;;;;;;10.18;4.57;;;;;;;26.03;29.48;99648.66;4931661;29;20067;-93
2022/04/10 09:03:58;;;;;;;11.65;5.30;;;;;;;25.63;30.23;99660.78;4931838;29;20054;-88
2022/04/10 09:06:23;;;;;;;11.80;4.88;;;;;;;26.34;29.80;99667.72;4934156;28;20043;-84
2022/04/10 09:08:50;;;;;;;11.45;4.68;;;;;;;25.53;30.33;99660.84;4928060;29;20049;-84
2022/04/10 09:11:16;;;;;;;8.63;4.40;;;;;;;26.22;29.75;99665.34;4919329;29;20117;-86
2022/04/10 09:13:49;;;;;;;13.75;6.03;;;;;;;26.24;30.19;99662.28;4926103;29;20035;-85
2022/04/10 09:16:22;;;;;;;14.15;5.70;;;;;;;28.20;27.36;99654.84;4947790;29;20036;-85
2022/04/10 09:18:55;;;;;;;15.73;6.20;;;;;;;28.54;26.75;99658.41;4929772;29;20518;-82
2022/04/10 09:21:30;;;;;;;12.63;6.35;;;;;;;28.28;26.78;99658.03;4956021;29;20103;-85
2022/04/10 09:24:06;;;;;;;13.60;6.65;;;;;;;28.08;26.79;99651.75;4959855;29;20586;-82
2022/04/10 09:26:49;;;;;;;14.52;6.30;;;;;;;27.12;28.66;99655.56;4938818;29;20086;-78
2022/04/10 09:29:16;;;;;;;12.90;6.80;;;;;;;28.36;26.81;99663.69;4916241;29;20039;-85
2022/04/10 09:31:43;;;;;;;16.13;7.10;;;;;;;27.97;27.50;99650.28;4940272;29;20480;-80
2022/04/10 09:34:10;;;;;;;13.90;6.07;;;;;;;29.56;25.47;99650.00;4925459;29;20115;-81
2022/04/10 09:36:42;;;;;;;20.40;7.20;;;;;;;29.18;25.30;99650.28;4930042;29;20134;-80
2022/04/10 09:39:32;;;;;;;15.15;6.55;;;;;;;27.51;28.23;99662.81;4908837;29;20050;-77
2022/04/10 09:42:36;;;;;;;18.08;8.18;;;;;;;26.84;29.10;99668.31;4920413;29;20512;-81
2022/04/10 09:45:01;;;;;;;15.85;7.20;;;;;;;25.13;31.81;99658.00;4941018;29;20110;-81
2022/04/10 09:47:28;;;;;;;28.40;8.10;;;;;;;25.61;31.55;99669.31;4926393;29;20208;-80
2022/04/10 09:49:53;;;;;;;9.27;6.43;;;;;;;25.09;32.38;99661.59;4945255;29;20035;-82
2022/04/10 09:52:19;;;;;;;49.67;8.88;;;;;;;23.67;34.79;99670.50;4923936;29;20072;-81
2022/04/10 09:54:46;;;;;;;17.98;7.55;;;;;;;24.55;33.40;99663.94;4954322;29;20063;-80
2022/04/10 09:57:18;;;;;;;12.65;7.28;;;;;;;24.59;33.48;99672.47;4954094;28;20043;-84
2022/04/10 09:59:50;;;;;;;15.60;7.88;;;;;;;24.91;32.69;99660.28;4944459;29;20059;-81
2022/04/10 10:02:19;;;;;;;38.55;9.43;;;;;;;23.59;35.07;99669.09;4925478;29;20141;-82
2022/04/10 10:04:46;;;;;;;13.90;7.22;;;;;;;23.52;35.04;99670.44;4920816;29;20126;-82
2022/04/10 10:07:16;;;;;;;40.63;8.93;;;;;;;23.74;34.58;99659.25;4907072;29;20085;-85
2022/04/10 10:23:19;;;;;;;35.38;8.68;;;;;;;24.06;33.87;99664.50;4883361;29;20037;-90
2022/04/10 10:26:38;;;;;;;41.55;8.18;;;;;;;23.66;34.33;99665.25;4868281;29;20431;-89
2022/04/10 10:29:52;;;;;;;17.73;7.50;;;;;;;22.27;37.12;99669.25;4883465;29;20058;-88
2022/04/10 10:33:00;;;;;;;22.05;7.20;;;;;;;21.54;38.64;99677.88;4865441;29;20171;-91
2022/04/10 10:39:21;;;;;;;22.58;7.78;;;;;;;22.03;37.89;99661.38;4879747;29;20100;-88
2022/04/10 10:41:50;;;;;;;14.13;7.30;;;;;;;21.70;38.62;99671.47;4878129;29;20434;-89
2022/04/10 10:44:52;;;;;;;13.52;7.10;;;;;;;21.02;40.34;99676.38;4907008;29;20035;-89
2022/04/10 10:47:26;;;;;;;17.95;7.80;;;;;;;19.32;44.04;99679.28;4921438;29;20062;-86
2022/04/10 10:49:54;;;;;;;16.85;8.13;;;;;;;19.62;43.22;99673.59;4917034;29;20058;-88
2022/04/10 10:52:20;;;;;;;13.30;7.28;;;;;;;19.99;42.38;99665.84;4904909;29;20766;-87
2022/04/10 10:54:55;;;;;;;11.27;8.00;;;;;;;19.41;43.67;99669.66;4920011;29;20371;-87
2022/04/10 10:57:25;;;;;;;12.77;7.45;;;;;;;18.70;45.41;99679.84;4920128;29;20035;-88
2022/04/10 11:03:15;;;;;;;12.90;7.22;;;;;;;18.47;45.81;99694.28;4937822;29;20078;-88
2022/04/10 11:09:21;;;;;;;13.73;7.10;;;;;;;18.28;46.86;99723.50;4939988;29;20038;-87
2022/04/10 11:15:18;;;;;;;17.02;7.82;;;;;;;18.41;46.45;99727.91;4938690;29;20110;-87
2022/04/10 11:18:22;;;;;;;13.23;7.28;;;;;;;17.84;48.02;99742.81;4920737;29;20393;-89
2022/04/10 11:20:56;;;;;;;14.50;7.03;;;;;;;17.91;47.26;99737.25;4936191;29;20083;-87
2022/04/10 11:27:36;;;;;;;15.45;7.18;;;;;;;18.01;47.38;99744.88;4937402;29;20099;-88
2022/04/10 11:33:22;;;;;;;13.18;7.07;;;;;;;18.60;45.84;99740.34;4938566;29;20042;-85
2022/04/10 11:35:56;;;;;;;;;;;;;;;19.00;44.86;99733.38;4956310;29;20043;-87
2022/04/10 11:38:24;;;;;;;13.68;6.68;;;;;;;19.19;44.11;99745.78;4954902;29;19926;-86
2022/04/10 11:40:53;;;;;;;11.77;6.35;;;;;;;18.95;44.77;99745.81;4922799;29;20573;-95
2022/04/10 11:43:21;;;;;;;13.45;6.80;;;;;;;19.31;43.74;99745.75;4938788;29;20423;-90
2022/04/10 11:45:56;;;;;;;16.45;6.78;;;;;;;18.68;45.09;99748.16;4947443;29;20047;-91
2022/04/10 11:48:25;;;;;;;13.25;6.93;;;;;;;18.62;45.36;99757.28;4921096;29;20101;-88
2022/04/10 11:50:51;;;;;;;13.60;6.45;;;;;;;17.78;47.01;99743.69;4937547;29;20126;-90
2022/04/10 11:53:18;;;;;;;11.00;6.72;;;;;;;17.55;48.28;99752.56;4917792;29;20638;-88
2022/04/10 11:55:54;;;;;;;9.93;6.40;;;;;;;17.64;47.96;99739.50;4926159;29;20040;-91
2022/04/10 11:58:24;;;;;;;15.40;6.60;;;;;;;17.29;48.71;99745.56;4936858;29;20134;-87
2022/04/10 12:00:58;;;;;;;12.25;6.32;;;;;;;17.46;48.65;99737.63;4899532;29;20039;-91
2022/04/10 12:03:29;;;;;;;13.80;6.68;;;;;;;17.67;48.20;99728.16;4906020;29;20133;-91
2022/04/10 12:06:05;;;;;;;11.50;7.15;;;;;;;18.04;48.67;99731.63;4923197;29;20047;-88
2022/04/10 12:08:32;;;;;;;13.15;6.22;;;;;;;18.22;46.92;99724.47;4937885;29;20074;-88
2022/04/10 12:11:05;;;;;;;13.10;6.50;;;;;;;17.71;47.92;99732.06;4919725;29;20075;-92
2022/04/10 12:13:35;;;;;;;9.73;6.18;;;;;;;18.26;46.71;99722.91;4922310;29;20066;-94
2022/04/10 12:16:11;;;;;;;12.90;6.70;;;;;;;18.74;45.39;99709.09;4940777;29;20023;-92